Rajbhavan Helipad

IN-0048 · Maharashtra, India

Storia di METAR IN-0048 · Rajbhavan Helipad

Di seguito sono riportati i METAR degli ultimi giorni. Seleziona un anno per sfogliare i METAR più vecchi, dall'anno 2007 in poi.

16 luglio 2024

Tempo Codice Tempo meteorologico Temp. Vista Base nuvolosa Vento METAR/SPECI
05:00
I
26 °C 2,1 km 9.000 ft 150° 150° 3 kt METAR VABB 152330Z 15003KT 2100 -RA SCT012 SCT018 FEW025TCU OVC090 26/25 Q0999 TEMPO 1500 SHRA
04:30
I
26 °C 2,2 km 9.000 ft 170° 170° 4 kt METAR VABB 152300Z 17004KT 2200 -DZ FEW012 SCT018 FEW025TCU BKN090 26/25 Q0999 TEMPO 1500 SHRA
04:00
I
26 °C 2,2 km 9.000 ft 150° 150° 3 kt METAR VABB 152230Z 15003KT 2200 HZ SCT018 FEW025TCU BKN090 26/25 Q0999 NOSIG
03:30
I
26 °C 2,2 km 9.000 ft 170° 170° 3 kt METAR VABB 152200Z 17003KT 2200 HZ SCT018 FEW025TCU BKN090 26/24 Q0999 NOSIG
03:00
I
26 °C 2,2 km 9.000 ft 200° 200° 3 kt METAR VABB 152130Z 20003KT 2200 HZ SCT018 FEW025TCU BKN090 26/24 Q0999 NOSIG
02:30
I
26 °C 2,2 km 9.000 ft 160° 160° 4 kt METAR VABB 152100Z 16004KT 2200 HZ SCT018 BKN090 26/24 Q0999 NOSIG
02:00
I
26 °C 2,2 km 9.000 ft 360° 360° 0 kt METAR VABB 152030Z 00000KT 2200 HZ SCT018 BKN090 26/24 Q0999 NOSIG
01:30
I
26 °C 2,2 km 9.000 ft 230° 230° 3 kt METAR VABB 152000Z 23003KT 2200 HZ SCT018 FEW025TCU BKN090 26/24 Q1000 NOSIG
01:00
I
26 °C 2,2 km 9.000 ft 360° 360° 0 kt METAR VABB 151930Z 00000KT 2200 HZ SCT018 FEW025TCU BKN090 26/25 Q1000 TEMPO 1500 SHRA
00:30
I
26 °C 2,2 km 9.000 ft 180° 180° 3 kt METAR VABB 151900Z 18003KT 2200 HZ FEW012 SCT018 FEW030CB BKN090 26/24 Q1000 TEMPO 1500 SHRA
00:00
I
26 °C 2,2 km 9.000 ft 160° 160° 3 kt METAR VABB 151830Z 16003KT 2200 -DZ FEW012 SCT018 FEW030CB BKN090 26/25 Q1001 TEMPO 1500 SHRA

15 luglio 2024

Tempo Codice Tempo meteorologico Temp. Vista Base nuvolosa Vento METAR/SPECI
23:30
I
27 °C 2,2 km 9.000 ft 230° 230° 5 kt METAR VABB 151800Z 23005KT 2200 HZ FEW012 SCT018 FEW030CB BKN090 27/25 Q1001 TEMPO 1500 SHRA
23:00
I
26 °C 2,2 km 9.000 ft 200° 200° 3 kt METAR VABB 151730Z 20003KT 2200 -DZ FEW012 SCT018 FEW030CB BKN090 26/24 Q1001 TEMPO 1500 SHRA
22:30
I
26 °C 2,2 km 9.000 ft 220° 220° 3 kt METAR VABB 151700Z 22003KT 2200 -DZ FEW012 SCT018 FEW030CB BKN090 26/24 Q1001 TEMPO 1500 SHRA
22:00
I
26 °C 2,1 km 9.000 ft 130° 130° 3 kt METAR VABB 151630Z 13003KT 2100 -DZ FEW012 SCT018 FEW030CB BKN090 26/24 Q1001 TEMPO 1500 SHRA
21:30
I
26 °C 2,1 km 10.000 ft 160° 160° 4 kt METAR VABB 151600Z 16004KT 2100 BR SCT018 FEW025TCU BKN100 26/24 Q1001 NOSIG
21:00
I
27 °C 2,1 km 10.000 ft 200° 200° 4 kt METAR VABB 151530Z 20004KT 2100 BR SCT018 FEW025TCU BKN100 27/25 Q1001 NOSIG
20:30
I
27 °C 2,1 km 10.000 ft 200° 200° 5 kt METAR VABB 151500Z 20005KT 2100 BR SCT018 FEW025TCU BKN100 27/25 Q1001 NOSIG
20:00
I
27 °C 2,1 km 10.000 ft 200° 200° 5 kt METAR VABB 151430Z 20005KT 2100 BR FEW012 SCT018 FEW025TCU BKN100 27/24 Q1000 NOSIG
19:30
I
27 °C 2,1 km 9.000 ft 150° 150° 4 kt METAR VABB 151400Z 15004KT 2100 BR FEW012 SCT018 FEW025TCU OVC090 27/24 Q1000 NOSIG
19:00
I
27 °C 2,1 km 9.000 ft 170° 170° 3 kt METAR VABB 151330Z 17003KT 2100 BR FEW012 SCT018 FEW025TCU OVC090 27/24 Q1000 NOSIG
18:30
I
27 °C 2,5 km 8.000 ft 210° 210° 3 kt METAR VABB 151300Z 21003KT 2500 BR SCT010 SCT018 FEW025TCU OVC080 27/24 Q0999 NOSIG
18:00
I
26 °C 2,5 km 8.000 ft 210° 210° 3 kt METAR VABB 151230Z 21003KT 2500 BR SCT010 SCT018 FEW025TCU OVC080 26/24 Q0999 NOSIG
17:30
I
26 °C 2,1 km 8.000 ft 220° 220° 4 kt METAR VABB 151200Z 22004KT 2100 BR SCT010 SCT015 FEW030CB OVC080 26/24 Q0999 TEMPO 1500 SHRA
17:00
I
26 °C 2,1 km 8.000 ft 250° 250° 5 kt METAR VABB 151130Z 25005KT 2100 BR SCT010 SCT015 FEW030CB OVC080 26/24 Q0999 TEMPO 1500 SHRA
16:30
I
26 °C 2,1 km 8.000 ft 260° 260° 7 kt METAR VABB 151100Z 26007KT 2100 -RA SCT010 SCT015 FEW030CB OVC080 26/24 Q0999 TEMPO 1500 SHRA
16:00
I
26 °C 2,1 km 8.000 ft 260° 260° 8 kt METAR VABB 151030Z 26008KT 2100 -RA SCT010 SCT015 FEW030CB OVC080 26/25 Q0999 TEMPO 1500 SHRA
15:30
I
26 °C 1,6 km 8.000 ft 330° 330° 4 kt METAR VABB 151000Z 33004KT 1600 -RA SCT010 SCT015 FEW030CB OVC080 26/24 Q0999 TEMPO 0800 +SHRA
15:00
I
27 °C 2,1 km 8.000 ft 010° 010° 4 kt METAR VABB 150930Z 01004KT 2100 VCSH SCT010 SCT015 FEW030CB OVC080 27/24 Q1000 TEMPO 1500 SHRA
14:30
I
27 °C 2,5 km 8.000 ft 220° 220° 7 kt METAR VABB 150900Z 22007KT 2500 BR SCT010 SCT018 FEW030CB OVC080 27/25 Q1000 TEMPO 1500 SHRA
14:00
I
27 °C 2,1 km 8.000 ft 190° 190° 8 kt METAR VABB 150830Z 19008KT 2100 -RA SCT010 SCT015 FEW030CB OVC080 27/25 Q1000 TEMPO 1500 SHRA
13:30
I
26 °C 2,1 km 8.000 ft 180° 180° 6 kt METAR VABB 150800Z 18006KT 2100 -RA SCT010 SCT015 FEW030CB OVC080 26/25 Q1001 TEMPO 1500 SHRA
13:00
L
27 °C 600 m 8.000 ft 360° 360° 0 kt METAR VABB 150730Z 00000KT 0600 R27/0700 +RA SCT010 SCT015 FEW030CB OVC080 27/25 Q1001 TEMPO 0350 +SHRA
12:30
L
27 °C 1,2 km 8.000 ft 180° 180° 5 kt METAR VABB 150700Z 18005KT 1200 R27/1600 RA SCT010 SCT015 FEW030CB OVC080 27/26 Q1001 TEMPO 0800 +SHRA
12:00
L
26 °C 600 m 8.000 ft 160° 160° 3 kt METAR VABB 150630Z 16003KT 0600 R27/0800 +RA SCT010 SCT015 FEW030CB OVC080 26/26 Q1001 TEMPO 0350 +SHRA
11:30
L
27 °C 1,4 km 8.000 ft 160° 160° 4 kt METAR VABB 150600Z 16004KT 1400 R27/1900 -RA SCT010 SCT015 FEW030CB OVC080 27/26 Q1001 TEMPO 0800 +SHRA
11:00
L
27 °C 1,4 km 8.000 ft 120° 120° 4 kt METAR VABB 150530Z 12004KT 1400 R27/1600 -RA SCT010 SCT015 FEW030CB OVC080 27/25 Q1001 TEMPO 0800 +SHRA
10:30
I
27 °C 2,1 km 8.000 ft 110° 110° 8 kt METAR VABB 150500Z 11008KT 2100 -RA SCT010 SCT015 FEW030CB OVC080 27/25 Q1001 TEMPO 1500 SHRA
10:00
I
27 °C 2,1 km 8.000 ft 190° 190° 3 kt METAR VABB 150430Z 19003KT 2100 VCSH SCT010 SCT015 FEW030CB OVC080 27/25 Q1001 TEMPO 1500 SHRA
09:30
L
26 °C 1,2 km 8.000 ft 270° 270° 4 kt METAR VABB 150400Z 27004KT 1200 R27/1400 RA SCT010 SCT015 FEW030CB OVC080 26/25 Q1001 TEMPO 0800 +SHRA
09:00
I
28 °C 2,1 km 8.000 ft 140° 140° 3 kt METAR VABB 150330Z 14003KT 2100 VCSH FEW010 SCT018 FEW030CB OVC080 28/25 Q1001 TEMPO 1500 SHRA
08:30
I
28 °C 2,1 km 8.000 ft Var Var 2 kt METAR VABB 150300Z VRB02KT 2100 BR FEW010 SCT018 FEW030CB OVC080 28/24 Q1001 TEMPO 1500 SHRA
08:00
I
28 °C 2,1 km 8.000 ft 180° 180° 3 kt METAR VABB 150230Z 18003KT 2100 -RA FEW010 SCT018 FEW030CB OVC080 28/26 Q1001 TEMPO 1500 SHRA
07:30
I
28 °C 2,1 km 9.000 ft 220° 220° 3 kt METAR VABB 150200Z 22003KT 2100 VCSH FEW012 SCT018 FEW030CB OVC090 28/26 Q1001 TEMPO 1500 SHRA
07:00
I
28 °C 2,1 km 9.000 ft 250° 250° 3 kt METAR VABB 150130Z 25003KT 2100 VCSH FEW012 SCT018 FEW030CB OVC090 28/25 Q1000 TEMPO 1500 SHRA
06:30
I
28 °C 2,1 km 9.000 ft 250° 250° 6 kt METAR VABB 150100Z 25006KT 2100 VCSH FEW012 SCT018 FEW030CB OVC090 28/26 Q1000 TEMPO 1500 SHRA
06:00
I
28 °C 2,1 km 9.000 ft 260° 260° 4 kt METAR VABB 150030Z 26004KT 2100 BR FEW012 SCT018 FEW030CB OVC090 28/26 Q1000 TEMPO 1500 SHRA
05:30
I
28 °C 2,1 km 9.000 ft 240° 240° 4 kt METAR VABB 150000Z 24004KT 2100 VCSH FEW012 SCT018 FEW030CB OVC090 28/26 Q0999 TEMPO 1500 SHRA
05:00
I
28 °C 2,1 km 9.000 ft 260° 260° 5 kt METAR VABB 142330Z 26005KT 2100 HZ FEW012 SCT018 FEW030CB OVC090 28/26 Q0999 TEMPO 1500 SHRA
04:30
I
28 °C 2,1 km 9.000 ft 240° 240° 5 kt METAR VABB 142300Z 24005KT 2100 HZ FEW012 SCT018 FEW030CB OVC090 28/26 Q0999 TEMPO 1500 SHRA
04:00
I
28 °C 2,1 km 9.000 ft 360° 360° 0 kt METAR VABB 142230Z 00000KT 2100 HZ FEW012 SCT018 FEW030CB OVC090 28/26 Q0999 TEMPO 1500 SHRA
03:30
I
28 °C 2,1 km 9.000 ft 280° 280° 4 kt METAR VABB 142200Z 28004KT 2100 -DZ FEW010 SCT018 FEW030CB OVC090 28/26 Q0999 TEMPO 1500 SHRA
03:00
I
28 °C 2,1 km 9.000 ft 240° 240° 5 kt METAR VABB 142130Z 24005KT 2100 -RA FEW010 SCT018 FEW030CB OVC090 28/26 Q0999 TEMPO 1500 SHRA
02:30
I
28 °C 2,1 km 9.000 ft 230° 230° 5 kt METAR VABB 142100Z 23005KT 2100 -RA FEW010 SCT018 FEW030CB OVC090 28/26 Q1000 TEMPO 1500 SHRA
02:00
I
28 °C 1,5 km 9.000 ft 250° 250° 4 kt METAR VABB 142030Z 25004KT 1500 RA SCT010 SCT018 FEW030CB BKN090 28/26 Q1000 TEMPO 0800 +SHRA
01:30
I
28 °C 2,2 km 9.000 ft 240° 240° 5 kt METAR VABB 142000Z 24005KT 2200 HZ SCT018 FEW030CB BKN090 28/26 Q1000 NOSIG
01:00
I
28 °C 2,2 km 9.000 ft 250° 250° 6 kt METAR VABB 141930Z 25006KT 2200 HZ SCT018 FEW030CB BKN090 28/26 Q1000 NOSIG
00:30
I
28 °C 2,2 km 9.000 ft 240° 240° 7 kt METAR VABB 141900Z 24007KT 2200 HZ SCT018 FEW030CB BKN090 28/26 Q1001 NOSIG
00:00
I
28 °C 2,2 km 9.000 ft 230° 230° 6 kt METAR VABB 141830Z 23006KT 2200 HZ SCT018 FEW030CB OVC090 28/26 Q1001 NOSIG

14 luglio 2024

Tempo Codice Tempo meteorologico Temp. Vista Base nuvolosa Vento METAR/SPECI
23:30
I
28 °C 2,2 km 9.000 ft 240° 240° 7 kt METAR VABB 141800Z 24007KT 2200 HZ SCT018 FEW025TCU OVC090 28/26 Q1001 NOSIG
23:00
I
28 °C 2,2 km 9.000 ft 240° 240° 6 kt METAR VABB 141730Z 24006KT 2200 HZ SCT018 FEW025TCU OVC090 28/26 Q1001 NOSIG
22:30
I
28 °C 2,2 km 9.000 ft 240° 240° 6 kt METAR VABB 141700Z 24006KT 2200 HZ SCT018 FEW025TCU OVC090 28/26 Q1001 NOSIG
22:00
I
28 °C 1,8 km 9.000 ft 230° 230° 5 kt METAR VABB 141630Z 23005KT 1800 DZ FEW012 SCT018 FEW025TCU OVC090 28/26 Q1001 TEMPO 1500 SHRA
21:30
I
28 °C 2,5 km 9.000 ft 240° 240° 6 kt METAR VABB 141600Z 24006KT 2500 VCSH FEW012 SCT018 FEW025TCU OVC090 28/26 Q1001 TEMPO 1500 SHRA
21:00
I
28 °C 2,5 km 9.000 ft 220° 220° 4 kt METAR VABB 141530Z 22004KT 2500 HZ SCT015 SCT025 OVC090 28/26 Q1001 NOSIG
20:30
I
28 °C 3 km 9.000 ft 240° 240° 6 kt METAR VABB 141500Z 24006KT 3000 HZ SCT015 SCT025 BKN090 28/26 Q1000 NOSIG
20:00
I
28 °C 3 km 9.000 ft 250° 250° 7 kt METAR VABB 141430Z 25007KT 3000 HZ SCT015 SCT025 BKN090 28/26 Q1000 NOSIG
19:30
I
28 °C 3 km 9.000 ft 240° 240° 6 kt METAR VABB 141400Z 24006KT 3000 HZ FEW015 SCT025 BKN090 28/26 Q1000 NOSIG
19:00
I
29 °C 3 km 8.000 ft 270° 270° 5 kt METAR VABB 141330Z 27005KT 3000 HZ FEW015 FEW025TCU OVC080 29/26 Q0999 NOSIG
18:30
I
28 °C 3 km 8.000 ft 220° 220° 4 kt METAR VABB 141300Z 22004KT 3000 HZ FEW015 FEW025TCU OVC080 28/26 Q0999 NOSIG
18:00
I
29 °C 3 km 8.000 ft 270° 270° 5 kt METAR VABB 141230Z 27005KT 3000 HZ SCT015 FEW025TCU OVC080 29/26 Q0999 NOSIG
17:30
I
29 °C 3 km 8.000 ft 270° 270° 5 kt METAR VABB 141200Z 27005KT 3000 HZ SCT015 FEW025TCU OVC080 29/26 Q0999 NOSIG
17:00
I
29 °C 3 km 8.000 ft 290° 290° 4 kt METAR VABB 141130Z 29004KT 3000 HZ SCT015 FEW025TCU OVC080 29/25 Q0999 NOSIG
16:30
I
28 °C 3 km 8.000 ft 280° 280° 10 kt METAR VABB 141100Z 28010KT 3000 HZ SCT015 FEW025TCU OVC080 28/25 Q0998 NOSIG
16:00
I
28 °C 3 km 8.000 ft 290° 290° 5 kt METAR VABB 141030Z 29005KT 3000 HZ SCT015 FEW025TCU OVC080 28/25 Q0999 NOSIG
15:30
I
29 °C 2,5 km 8.000 ft 260° 260° 12 kt METAR VABB 141000Z 26012KT 2500 HZ SCT015 FEW030CB OVC080 29/26 Q0999 TEMPO 1500 SHRA
15:00
I
29 °C 2,5 km 8.000 ft 240° 240° 8 kt METAR VABB 140930Z 24008KT 2500 HZ SCT015 FEW030CB OVC080 29/26 Q0999 TEMPO 1500 SHRA
14:30
I
29 °C 2,5 km 8.000 ft 270° 270° 10 kt METAR VABB 140900Z 27010KT 2500 VCSH SCT015 FEW025TCU OVC080 29/26 Q1000 TEMPO 1500 SHRA
14:00
I
30 °C 2,5 km 8.000 ft 270° 270° 10 kt METAR VABB 140830Z 27010KT 2500 HZ SCT015 FEW025TCU OVC080 30/26 Q1000 NOSIG
13:30
I
29 °C 2,5 km 8.000 ft 270° 270° 10 kt METAR VABB 140800Z 27010KT 2500 VCSH FEW012 SCT018 FEW030CB OVC080 29/26 Q1000 TEMPO 1500 SHRA
13:00
I
30 °C 2,5 km 8.000 ft 270° 270° 9 kt METAR VABB 140730Z 27009KT 2500 VCSH FEW012 SCT018 FEW030CB OVC080 30/27 Q1000 TEMPO 1500 SHRA
12:30
I
30 °C 2,5 km 8.000 ft 270° 270° 8 kt METAR VABB 140700Z 27008KT 2500 VCSH SCT012 SCT018 FEW030CB OVC080 30/27 Q1001 TEMPO 1500 SHRA
12:00
I
29 °C 2,5 km 8.000 ft 280° 280° 8 kt METAR VABB 140630Z 28008KT 2500 VCSH SCT012 SCT018 FEW030CB OVC080 29/26 Q1001 TEMPO 1500 SHRA
11:30
I
28 °C 2,5 km 8.000 ft 280° 280° 12 kt METAR VABB 140600Z 28012KT 2500 VCSH SCT012 SCT018 FEW030CB OVC080 28/26 Q1001 TEMPO 1500 SHRA
11:00
I
29 °C 2,5 km 8.000 ft 280° 280° 6 kt METAR VABB 140530Z 28006KT 2500 BR SCT012 SCT018 FEW030CB OVC080 29/26 Q1001 TEMPO 1500 SHRA
10:30
I
28 °C 2,1 km 8.000 ft 280° 280° 7 kt METAR VABB 140500Z 28007KT 2100 -RA SCT010 SCT015 FEW030CB OVC080 28/26 Q1002 TEMPO 1500 SHRA
10:00
I
28 °C 2,1 km 8.000 ft 280° 280° 8 kt METAR VABB 140430Z 28008KT 2100 -RA SCT010 SCT015 FEW030CB OVC080 28/26 Q1002 TEMPO 1500 SHRA
09:30
I
28 °C 2,1 km 8.000 ft 270° 270° 9 kt METAR VABB 140400Z 27009KT 2100 -RA SCT010 SCT015 FEW030CB OVC080 28/26 Q1002 TEMPO 1500 SHRA
09:00
I
28 °C 2,1 km 8.000 ft 270° 270° 9 kt METAR VABB 140330Z 27009KT 2100 -RA SCT010 SCT015 FEW030CB OVC080 28/26 Q1002 TEMPO 1500 SHRA
08:30
I
28 °C 2,1 km 8.000 ft 240° 240° 9 kt METAR VABB 140300Z 24009KT 2100 -RA SCT010 SCT015 FEW030CB OVC080 28/26 Q1002 TEMPO 1500 SHRA
08:00
I
27 °C 1,8 km 8.000 ft 250° 250° 9 kt METAR VABB 140230Z 25009KT 1800 -RA SCT010 SCT015 FEW030CB OVC080 27/25 Q1002 TEMPO 1500 SHRA
07:30
I
26 °C 1,5 km 8.000 ft 240° 240° 7 kt METAR VABB 140200Z 24007KT 1500 -RA SCT010 SCT015 FEW030CB OVC080 26/23 Q1001 TEMPO 0800 +SHRA
07:00
L
26 °C 1,2 km 8.000 ft 280° 280° 7 - 17 kt METAR VABB 140130Z 28007G17KT 1200 R27/1400 RA SCT010 SCT015 FEW030CB OVC080 26/25 Q1001 TEMPO 0600 +SHRA
06:30
L
26 °C 1,2 km 8.000 ft 250° 250° 10 kt METAR VABB 140100Z 25010KT 1200 R27/1400 RA SCT010 SCT015 FEW030CB OVC080 26/24 Q1001 TEMPO 0600 +SHRA
06:00
I
27 °C 2,1 km 9.000 ft 260° 260° 9 kt METAR VABB 140030Z 26009KT 2100 -RA SCT012 SCT018 FEW030CB OVC090 27/26 Q1001 TEMPO 1500 SHRA
05:30
I
28 °C 2,1 km 9.000 ft 260° 260° 12 kt METAR VABB 140000Z 26012KT 2100 HZ SCT012 SCT018 FEW030CB OVC090 28/26 Q1000 TEMPO 1500 SHRA
05:00
I
28 °C 2,1 km 9.000 ft 270° 270° 7 kt METAR VABB 132330Z 27007KT 2100 HZ SCT012 SCT018 FEW030CB OVC090 28/26 Q1001 TEMPO 1500 SHRA
04:30
I
27 °C 2,1 km 9.000 ft 260° 260° 10 kt METAR VABB 132300Z 26010KT 2100 -DZ SCT012 SCT018 FEW030CB OVC090 27/25 Q1000 TEMPO 1500 SHRA
04:00
I
27 °C 2,1 km 9.000 ft 250° 250° 9 - 19 kt METAR VABB 132230Z 25009G19KT 2100 -RA SCT012 SCT018 FEW030CB OVC090 27/25 Q1000 TEMPO 1500 SHRA
03:30
I
28 °C 2,1 km 9.000 ft 250° 250° 6 kt METAR VABB 132200Z 25006KT 2100 HZ SCT012 SCT018 FEW030CB OVC090 28/26 Q1000 TEMPO 1500 SHRA
03:00
I
28 °C 2,1 km 9.000 ft 250° 250° 9 kt METAR VABB 132130Z 25009KT 2100 HZ SCT012 SCT018 FEW030CB OVC090 28/26 Q1001 TEMPO 1500 SHRA
02:30
I
27 °C 2,1 km 9.000 ft 250° 250° 6 kt METAR VABB 132100Z 25006KT 2100 HZ SCT012 SCT018 FEW030CB OVC090 27/25 Q1001 TEMPO 1500 SHRA
02:00
I
27 °C 2,1 km 8.000 ft 260° 260° 7 kt METAR VABB 132030Z 26007KT 2100 -RA SCT010 SCT015 FEW030CB OVC080 27/25 Q1001 TEMPO 1500 SHRA
01:30
I
28 °C 1,8 km 8.000 ft 270° 270° 5 kt METAR VABB 132000Z 27005KT 1800 -RA SCT010 SCT015 FEW030CB OVC080 28/25 Q1002 TEMPO 0800 +SHRA
01:00
I
27 °C 1,5 km 8.000 ft 250° 250° 7 kt METAR VABB 131930Z 25007KT 1500 RA SCT010 SCT015 FEW030CB OVC080 27/26 Q1002 TEMPO 0800 +SHRA
00:30
I
27 °C 1,5 km 8.000 ft 240° 240° 10 kt METAR VABB 131900Z 24010KT 1500 RA SCT010 SCT015 FEW030CB OVC080 27/26 Q1002 TEMPO 0800 +SHRA
00:00
L
26 °C 1 km 8.000 ft 260° 260° 7 - 17 kt METAR VABB 131830Z 26007G17KT 1000 R27/1400 +RA SCT010 SCT015 FEW030CB OVC080 26/25 Q1003 TEMPO 0800 +SHRA

13 luglio 2024

Tempo Codice Tempo meteorologico Temp. Vista Base nuvolosa Vento METAR/SPECI
23:30
L
24 °C 1 km 8.000 ft 260° 260° 3 kt METAR VABB 131800Z 26003KT 1000 R27/1400 +RA SCT010 SCT015 FEW030CB OVC080 24/24 Q1003 TEMPO 0800 +SHRA
23:00
L
26 °C 800 m 8.000 ft 300° 300° 11 - 21 kt METAR VABB 131730Z 30011G21KT 0800 R27/1200 +SHRA SCT010 SCT015 FEW030CB OVC080 26/24 Q1003 TEMPO 0600 +SHRA
22:30
I
27 °C 1,8 km 8.000 ft 220° 220° 9 kt METAR VABB 131700Z 22009KT 1800 -RA SCT010 SCT015 FEW030CB OVC080 27/26 Q1003 TEMPO 0800 +SHRA
22:00
I
27 °C 1,8 km 8.000 ft 210° 210° 7 kt METAR VABB 131630Z 21007KT 1800 -RA SCT010 SCT015 FEW030CB OVC080 27/25 Q1003 TEMPO 0800 +SHRA
21:30
I
26 °C 1,8 km 8.000 ft 220° 220° 5 kt METAR VABB 131600Z 22005KT 1800 -RA SCT010 SCT015 FEW030CB OVC080 26/25 Q1003 TEMPO 0800 +SHRA
21:00
I
26 °C 1,8 km 8.000 ft 240° 240° 6 kt METAR VABB 131530Z 24006KT 1800 RA SCT010 SCT015 FEW030CB OVC080 26/25 Q1003 TEMPO 0800 +SHRA
20:30
I
25 °C 1,8 km 8.000 ft 240° 240° 8 kt METAR VABB 131500Z 24008KT 1800 -RA SCT010 SCT015 FEW030CB OVC080 25/25 Q1002 TEMPO 0800 +SHRA
20:00
L
24 °C 600 m 8.000 ft 250° 250° 10 - 20 kt METAR VABB 131430Z 25010G20KT 0600 R27/0800 +RA SCT008 SCT015 FEW030CB OVC080 24/23 Q1003 TEMPO 350 SHRA
19:30
I
26 °C 1,8 km 8.000 ft 240° 240° 8 kt METAR VABB 131400Z 24008KT 1800 -RA SCT010 SCT015 FEW030CB OVC080 26/24 Q1002 TEMPO 1500 SHRA
19:00
I
26 °C 1,8 km 8.000 ft 250° 250° 10 kt METAR VABB 131330Z 25010KT 1800 -RA SCT010 SCT015 FEW030CB OVC080 26/25 Q1002 TEMPO 1500 SHRA
18:30
I
27 °C 1,8 km 8.000 ft 230° 230° 11 kt METAR VABB 131300Z 23011KT 1800 -RA SCT010 SCT015 FEW030CB OVC080 27/25 Q1002 TEMPO 1500 SHRA
18:00
I
26 °C 1,8 km 8.000 ft 240° 240° 9 kt METAR VABB 131230Z 24009KT 1800 -RA SCT010 SCT015 FEW030CB OVC080 26/25 Q1001 TEMPO 1500 SHRA
17:30
I
26 °C 1,8 km 8.000 ft 250° 250° 11 kt METAR VABB 131200Z 25011KT 1800 -RA SCT010 SCT015 FEW030CB OVC080 26/25 Q1002 TEMPO 1500 SHRA
17:00
L
26 °C 800 m 8.000 ft 250° 250° 9 - 19 kt METAR VABB 131130Z 25009G19KT 0800 R27/1000 +RA SCT010 SCT015 FEW030CB OVC080 26/24 Q1002 TEMPO 0600 SHRA
16:30
I
26 °C 1,8 km 8.000 ft 240° 240° 7 - 17 kt METAR VABB 131100Z 24007G17KT 1800 RA SCT010 SCT015 FEW030CB OVC080 26/25 Q1002 TEMPO 1500 SHRA
16:00
I
26 °C 1,8 km 8.000 ft 240° 240° 11 kt METAR VABB 131030Z 24011KT 1800 R27/2000 -RA SCT010 SCT015 FEW030CB OVC080 26/25 Q1002 TEMPO 1500 SHRA
15:30
I
26 °C 1,5 km 8.000 ft 240° 240° 12 kt METAR VABB 131000Z 24012KT 1500 R27/1800 -RA SCT010 SCT015 FEW030CB OVC080 26/25 Q1002 TEMPO 0800 +SHRA
15:00
I
27 °C 2,1 km 8.000 ft 240° 240° 12 kt METAR VABB 130930Z 24012KT 2100 -DZ SCT012 SCT015 FEW030CB OVC080 27/25 Q1002 TEMPO 1500 SHRA
14:30
I
26 °C 1,8 km 8.000 ft 240° 240° 14 - 24 kt METAR VABB 130900Z 24014G24KT 1800 -RA SCT010 SCT015 FEW030CB OVC080 26/25 Q1002 TEMPO 1500 SHRA
14:00
I
26 °C 1,8 km 8.000 ft 240° 240° 13 - 23 kt METAR VABB 130830Z 24013G23KT 1800 -RA SCT010 SCT015 FEW030CB OVC080 26/25 Q1003 TEMPO 1500 SHRA
13:30
L
27 °C 1,2 km 8.000 ft 240° 240° 6 kt METAR VABB 130800Z 24006KT 1200 R27/1400 RA SCT008 SCT015 FEW030CB OVC080 27/25 Q1003 TEMPO 0800 +SHRA
13:00
L
26 °C 1,2 km 8.000 ft 220° 220° 8 - 18 kt METAR VABB 130730Z 22008G18KT 1200 R27/1400 RA SCT008 SCT015 FEW030CB OVC080 26/25 Q1003 TEMPO 0800 +SHRA
12:30
L
25 °C 800 m 8.000 ft 200° 200° 3 kt METAR VABB 130700Z 20003KT 0800 R27/1000 +RA SCT008 SCT015 FEW030CB OVC080 25/24 Q1004 TEMPO 0600 +SHRA
12:00
I
25 °C 1,5 km 8.000 ft 360° 360° 0 kt METAR VABB 130630Z 00000KT 1500 RA SCT008 SCT015 FEW030CB OVC080 25/24 Q1004 TEMPO 0800 +SHRA
11:30
L
24 °C 1 km 8.000 ft 310° 310° 8 kt METAR VABB 130600Z 31008KT 1000 R27/1200 +RA SCT008 SCT015 FEW030CB OVC080 24/24 Q1004 TEMPO 0600 +SHRA
Segnala modifiche